CPX675 Details

Departure: Lynden Pindling International Airport (MYNN)
Arrival: Providenciales International Airport (MBPV) at N/A
Route: ZQA A555 MICAS G648 PVN
Notes:


Current Weather Information
MYNN 190200Z 16005KT 9999 SCT020 SCT040 BKN200 27/24 A2996
MBPV 182300Z 06004KT 9999 SCT012 28/24 Q1012